sensor_id;sensor_type;location;lat;lon;timestamp;P1;durP1;ratioP1;P2;durP2;ratioP2
45043;SDS011;30784;48.490;9.688;2023-08-06T00:00:42;4.05;;;1.50;;
45043;SDS011;30784;48.490;9.688;2023-08-06T00:03:07;6.82;;;1.80;;
45043;SDS011;30784;48.490;9.688;2023-08-06T00:05:33;4.43;;;1.65;;
45043;SDS011;30784;48.490;9.688;2023-08-06T00:07:59;5.30;;;1.88;;
45043;SDS011;30784;48.490;9.688;2023-08-06T00:10:24;4.72;;;1.70;;
45043;SDS011;30784;48.490;9.688;2023-08-06T00:12:50;4.82;;;1.75;;
45043;SDS011;30784;48.490;9.688;2023-08-06T00:15:15;5.07;;;1.70;;
45043;SDS011;30784;48.490;9.688;2023-08-06T00:17:41;3.92;;;1.63;;
45043;SDS011;30784;48.490;9.688;2023-08-06T00:20:06;3.80;;;1.52;;
45043;SDS011;30784;48.490;9.688;2023-08-06T00:22:33;4.55;;;1.55;;
45043;SDS011;30784;48.490;9.688;2023-08-06T00:25:00;4.90;;;1.73;;
45043;SDS011;30784;48.490;9.688;2023-08-06T00:30:54;5.18;;;1.77;;
45043;SDS011;30784;48.490;9.688;2023-08-06T00:33:21;5.25;;;2.00;;
45043;SDS011;30784;48.490;9.688;2023-08-06T00:35:47;5.22;;;2.00;;
45043;SDS011;30784;48.490;9.688;2023-08-06T00:38:13;6.45;;;1.90;;
45043;SDS011;30784;48.490;9.688;2023-08-06T00:40:38;5.03;;;1.83;;
45043;SDS011;30784;48.490;9.688;2023-08-06T00:43:04;5.53;;;1.70;;
45043;SDS011;30784;48.490;9.688;2023-08-06T00:45:30;5.47;;;2.30;;
45043;SDS011;30784;48.490;9.688;2023-08-06T00:47:58;5.75;;;2.03;;
45043;SDS011;30784;48.490;9.688;2023-08-06T00:50:24;6.38;;;2.30;;
45043;SDS011;30784;48.490;9.688;2023-08-06T00:52:50;6.40;;;2.40;;
45043;SDS011;30784;48.490;9.688;2023-08-06T00:55:16;6.72;;;2.50;;
45043;SDS011;30784;48.490;9.688;2023-08-06T00:57:42;5.97;;;2.45;;
45043;SDS011;30784;48.490;9.688;2023-08-06T01:00:08;5.30;;;2.00;;
45043;SDS011;30784;48.490;9.688;2023-08-06T01:02:34;5.35;;;2.08;;
45043;SDS011;30784;48.490;9.688;2023-08-06T01:05:00;4.38;;;1.70;;
45043;SDS011;30784;48.490;9.688;2023-08-06T01:12:48;6.15;;;2.20;;
45043;SDS011;30784;48.490;9.688;2023-08-06T01:15:19;5.35;;;2.08;;
45043;SDS011;30784;48.490;9.688;2023-08-06T01:17:48;5.60;;;2.38;;
45043;SDS011;30784;48.490;9.688;2023-08-06T01:20:14;7.82;;;2.70;;
45043;SDS011;30784;48.490;9.688;2023-08-06T01:22:40;5.80;;;2.50;;
45043;SDS011;30784;48.490;9.688;2023-08-06T01:25:05;6.22;;;2.40;;
45043;SDS011;30784;48.490;9.688;2023-08-06T01:27:43;5.82;;;1.90;;
45043;SDS011;30784;48.490;9.688;2023-08-06T01:30:13;5.13;;;1.98;;
45043;SDS011;30784;48.490;9.688;2023-08-06T01:32:43;5.05;;;1.88;;
45043;SDS011;30784;48.490;9.688;2023-08-06T01:35:11;4.65;;;1.70;;
45043;SDS011;30784;48.490;9.688;2023-08-06T01:37:38;4.80;;;1.90;;
45043;SDS011;30784;48.490;9.688;2023-08-06T01:40:14;5.60;;;1.95;;
45043;SDS011;30784;48.490;9.688;2023-08-06T01:42:40;4.38;;;1.60;;
45043;SDS011;30784;48.490;9.688;2023-08-06T01:45:06;4.85;;;1.67;;
45043;SDS011;30784;48.490;9.688;2023-08-06T01:47:32;4.13;;;1.63;;
45043;SDS011;30784;48.490;9.688;2023-08-06T01:49:58;5.38;;;1.80;;
45043;SDS011;30784;48.490;9.688;2023-08-06T01:52:24;4.60;;;1.70;;
45043;SDS011;30784;48.490;9.688;2023-08-06T01:54:49;5.50;;;1.77;;
45043;SDS011;30784;48.490;9.688;2023-08-06T01:57:15;5.60;;;1.80;;
45043;SDS011;30784;48.490;9.688;2023-08-06T01:59:40;4.70;;;1.52;;
45043;SDS011;30784;48.490;9.688;2023-08-06T02:02:06;4.63;;;1.60;;
45043;SDS011;30784;48.490;9.688;2023-08-06T02:04:31;3.78;;;1.58;;
45043;SDS011;30784;48.490;9.688;2023-08-06T02:06:57;4.68;;;1.67;;
45043;SDS011;30784;48.490;9.688;2023-08-06T02:09:22;4.32;;;1.50;;
45043;SDS011;30784;48.490;9.688;2023-08-06T02:11:48;4.90;;;1.70;;
45043;SDS011;30784;48.490;9.688;2023-08-06T02:14:13;4.90;;;1.52;;
45043;SDS011;30784;48.490;9.688;2023-08-06T02:16:39;4.35;;;1.35;;
45043;SDS011;30784;48.490;9.688;2023-08-06T02:19:04;4.47;;;1.42;;
45043;SDS011;30784;48.490;9.688;2023-08-06T02:21:30;3.63;;;1.58;;
45043;SDS011;30784;48.490;9.688;2023-08-06T02:23:55;5.00;;;1.67;;
45043;SDS011;30784;48.490;9.688;2023-08-06T02:26:21;5.72;;;1.63;;
45043;SDS011;30784;48.490;9.688;2023-08-06T02:28:46;4.75;;;1.65;;
45043;SDS011;30784;48.490;9.688;2023-08-06T02:31:12;7.25;;;1.77;;
45043;SDS011;30784;48.490;9.688;2023-08-06T02:33:37;4.05;;;1.60;;
45043;SDS011;30784;48.490;9.688;2023-08-06T02:36:03;5.35;;;1.90;;
45043;SDS011;30784;48.490;9.688;2023-08-06T02:38:29;5.22;;;1.90;;
45043;SDS011;30784;48.490;9.688;2023-08-06T02:40:55;7.85;;;2.90;;
45043;SDS011;30784;48.490;9.688;2023-08-06T02:43:21;8.15;;;2.95;;
45043;SDS011;30784;48.490;9.688;2023-08-06T02:45:47;10.13;;;3.15;;
45043;SDS011;30784;48.490;9.688;2023-08-06T02:48:12;7.63;;;2.80;;
45043;SDS011;30784;48.490;9.688;2023-08-06T02:50:38;6.82;;;2.53;;
45043;SDS011;30784;48.490;9.688;2023-08-06T02:53:05;6.93;;;2.50;;
45043;SDS011;30784;48.490;9.688;2023-08-06T02:55:32;7.63;;;2.70;;
45043;SDS011;30784;48.490;9.688;2023-08-06T02:57:59;5.65;;;2.28;;
45043;SDS011;30784;48.490;9.688;2023-08-06T03:00:25;5.20;;;2.15;;
45043;SDS011;30784;48.490;9.688;2023-08-06T03:02:50;5.80;;;2.20;;
45043;SDS011;30784;48.490;9.688;2023-08-06T03:05:16;5.38;;;1.83;;
45043;SDS011;30784;48.490;9.688;2023-08-06T03:07:41;4.72;;;1.55;;
45043;SDS011;30784;48.490;9.688;2023-08-06T03:10:07;5.18;;;1.50;;
45043;SDS011;30784;48.490;9.688;2023-08-06T03:12:33;4.20;;;1.40;;
45043;SDS011;30784;48.490;9.688;2023-08-06T03:14:58;4.72;;;1.50;;
45043;SDS011;30784;48.490;9.688;2023-08-06T03:17:24;4.97;;;1.55;;
45043;SDS011;30784;48.490;9.688;2023-08-06T03:19:49;5.68;;;1.40;;
45043;SDS011;30784;48.490;9.688;2023-08-06T03:22:15;4.32;;;1.17;;
45043;SDS011;30784;48.490;9.688;2023-08-06T03:24:40;4.13;;;1.38;;
45043;SDS011;30784;48.490;9.688;2023-08-06T03:27:06;4.25;;;1.50;;
45043;SDS011;30784;48.490;9.688;2023-08-06T03:29:31;3.22;;;1.20;;
45043;SDS011;30784;48.490;9.688;2023-08-06T03:31:57;4.63;;;1.40;;
45043;SDS011;30784;48.490;9.688;2023-08-06T03:34:22;4.95;;;1.35;;
45043;SDS011;30784;48.490;9.688;2023-08-06T03:36:48;3.95;;;1.20;;
45043;SDS011;30784;48.490;9.688;2023-08-06T03:39:13;3.80;;;1.40;;
45043;SDS011;30784;48.490;9.688;2023-08-06T03:41:39;4.07;;;1.30;;
45043;SDS011;30784;48.490;9.688;2023-08-06T03:44:05;3.70;;;1.30;;
45043;SDS011;30784;48.490;9.688;2023-08-06T03:46:30;5.05;;;1.30;;
45043;SDS011;30784;48.490;9.688;2023-08-06T03:49:02;4.88;;;1.27;;
45043;SDS011;30784;48.490;9.688;2023-08-06T03:51:27;4.75;;;1.40;;
45043;SDS011;30784;48.490;9.688;2023-08-06T03:53:53;4.07;;;1.38;;
45043;SDS011;30784;48.490;9.688;2023-08-06T03:56:19;3.67;;;1.20;;
45043;SDS011;30784;48.490;9.688;2023-08-06T03:58:44;3.50;;;1.20;;
45043;SDS011;30784;48.490;9.688;2023-08-06T04:01:10;3.85;;;1.25;;
45043;SDS011;30784;48.490;9.688;2023-08-06T04:03:35;3.35;;;1.30;;
45043;SDS011;30784;48.490;9.688;2023-08-06T04:06:04;6.70;;;1.58;;
45043;SDS011;30784;48.490;9.688;2023-08-06T04:08:29;4.80;;;1.70;;
45043;SDS011;30784;48.490;9.688;2023-08-06T04:10:55;4.72;;;1.77;;
45043;SDS011;30784;48.490;9.688;2023-08-06T04:13:20;6.05;;;1.65;;
45043;SDS011;30784;48.490;9.688;2023-08-06T04:15:46;5.15;;;1.70;;
45043;SDS011;30784;48.490;9.688;2023-08-06T04:18:12;5.60;;;1.70;;
45043;SDS011;30784;48.490;9.688;2023-08-06T04:20:44;5.38;;;1.70;;
45043;SDS011;30784;48.490;9.688;2023-08-06T04:23:10;5.25;;;1.70;;
45043;SDS011;30784;48.490;9.688;2023-08-06T04:25:36;6.53;;;1.90;;
45043;SDS011;30784;48.490;9.688;2023-08-06T04:28:01;5.00;;;1.60;;
45043;SDS011;30784;48.490;9.688;2023-08-06T04:30:27;5.28;;;1.70;;
45043;SDS011;30784;48.490;9.688;2023-08-06T04:32:53;5.13;;;1.60;;
45043;SDS011;30784;48.490;9.688;2023-08-06T04:35:18;4.88;;;1.50;;
45043;SDS011;30784;48.490;9.688;2023-08-06T04:37:44;3.75;;;1.30;;
45043;SDS011;30784;48.490;9.688;2023-08-06T04:40:09;4.50;;;1.42;;
45043;SDS011;30784;48.490;9.688;2023-08-06T04:42:35;4.63;;;1.40;;
45043;SDS011;30784;48.490;9.688;2023-08-06T04:45:01;5.82;;;1.55;;
45043;SDS011;30784;48.490;9.688;2023-08-06T04:47:27;4.55;;;1.70;;
45043;SDS011;30784;48.490;9.688;2023-08-06T04:49:53;5.40;;;1.33;;
45043;SDS011;30784;48.490;9.688;2023-08-06T04:52:18;5.07;;;1.48;;
45043;SDS011;30784;48.490;9.688;2023-08-06T04:54:44;5.57;;;1.20;;
45043;SDS011;30784;48.490;9.688;2023-08-06T04:57:09;4.95;;;1.17;;
45043;SDS011;30784;48.490;9.688;2023-08-06T04:59:35;4.45;;;1.17;;
45043;SDS011;30784;48.490;9.688;2023-08-06T05:02:01;3.90;;;1.15;;
45043;SDS011;30784;48.490;9.688;2023-08-06T05:04:27;3.90;;;1.20;;
45043;SDS011;30784;48.490;9.688;2023-08-06T05:06:53;4.57;;;1.20;;
45043;SDS011;30784;48.490;9.688;2023-08-06T05:09:18;4.10;;;1.08;;
45043;SDS011;30784;48.490;9.688;2023-08-06T05:11:45;3.67;;;1.20;;
45043;SDS011;30784;48.490;9.688;2023-08-06T05:14:11;3.78;;;1.10;;
45043;SDS011;30784;48.490;9.688;2023-08-06T05:16:37;3.13;;;1.00;;
45043;SDS011;30784;48.490;9.688;2023-08-06T05:19:02;2.72;;;0.90;;
45043;SDS011;30784;48.490;9.688;2023-08-06T05:21:28;4.05;;;1.38;;
45043;SDS011;30784;48.490;9.688;2023-08-06T05:23:54;3.35;;;1.00;;
45043;SDS011;30784;48.490;9.688;2023-08-06T05:26:19;3.75;;;1.08;;
45043;SDS011;30784;48.490;9.688;2023-08-06T05:28:45;5.10;;;1.30;;
45043;SDS011;30784;48.490;9.688;2023-08-06T05:31:11;4.68;;;1.13;;
45043;SDS011;30784;48.490;9.688;2023-08-06T05:33:36;4.32;;;1.40;;
45043;SDS011;30784;48.490;9.688;2023-08-06T05:36:02;4.28;;;1.00;;
45043;SDS011;30784;48.490;9.688;2023-08-06T05:38:29;3.30;;;0.90;;
45043;SDS011;30784;48.490;9.688;2023-08-06T05:40:54;2.92;;;0.98;;
45043;SDS011;30784;48.490;9.688;2023-08-06T05:43:21;4.13;;;1.20;;
45043;SDS011;30784;48.490;9.688;2023-08-06T05:45:48;2.83;;;0.90;;
45043;SDS011;30784;48.490;9.688;2023-08-06T05:48:14;2.70;;;0.80;;
45043;SDS011;30784;48.490;9.688;2023-08-06T05:50:40;4.63;;;1.20;;
45043;SDS011;30784;48.490;9.688;2023-08-06T05:53:05;2.72;;;0.73;;
45043;SDS011;30784;48.490;9.688;2023-08-06T05:55:31;1.98;;;0.80;;
45043;SDS011;30784;48.490;9.688;2023-08-06T05:57:57;3.42;;;0.82;;
45043;SDS011;30784;48.490;9.688;2023-08-06T06:00:23;3.17;;;0.80;;
45043;SDS011;30784;48.490;9.688;2023-08-06T06:02:49;2.92;;;0.80;;
45043;SDS011;30784;48.490;9.688;2023-08-06T06:05:14;2.47;;;0.70;;
45043;SDS011;30784;48.490;9.688;2023-08-06T06:07:40;3.38;;;0.90;;
45043;SDS011;30784;48.490;9.688;2023-08-06T06:10:06;2.67;;;0.70;;
45043;SDS011;30784;48.490;9.688;2023-08-06T06:12:32;1.75;;;0.45;;
45043;SDS011;30784;48.490;9.688;2023-08-06T06:14:57;2.47;;;0.70;;
45043;SDS011;30784;48.490;9.688;2023-08-06T06:17:24;1.67;;;0.60;;
45043;SDS011;30784;48.490;9.688;2023-08-06T06:19:49;1.65;;;0.63;;
45043;SDS011;30784;48.490;9.688;2023-08-06T06:22:15;2.00;;;0.70;;
45043;SDS011;30784;48.490;9.688;2023-08-06T06:24:40;3.08;;;0.60;;
45043;SDS011;30784;48.490;9.688;2023-08-06T06:27:06;4.20;;;0.63;;
45043;SDS011;30784;48.490;9.688;2023-08-06T06:29:31;1.05;;;0.32;;
45043;SDS011;30784;48.490;9.688;2023-08-06T06:31:57;1.73;;;0.60;;
45043;SDS011;30784;48.490;9.688;2023-08-06T06:34:23;1.42;;;0.43;;
45043;SDS011;30784;48.490;9.688;2023-08-06T06:36:48;1.45;;;0.47;;
45043;SDS011;30784;48.490;9.688;2023-08-06T06:39:14;2.15;;;0.50;;
45043;SDS011;30784;48.490;9.688;2023-08-06T06:41:40;3.50;;;0.40;;
45043;SDS011;30784;48.490;9.688;2023-08-06T06:44:06;1.45;;;0.40;;
45043;SDS011;30784;48.490;9.688;2023-08-06T06:46:31;1.30;;;0.40;;
45043;SDS011;30784;48.490;9.688;2023-08-06T06:48:57;1.10;;;0.40;;
45043;SDS011;30784;48.490;9.688;2023-08-06T06:51:22;1.08;;;0.30;;
45043;SDS011;30784;48.490;9.688;2023-08-06T06:53:48;2.00;;;0.30;;
45043;SDS011;30784;48.490;9.688;2023-08-06T06:56:13;1.83;;;0.43;;
45043;SDS011;30784;48.490;9.688;2023-08-06T06:58:39;1.15;;;0.32;;
45043;SDS011;30784;48.490;9.688;2023-08-06T07:01:06;2.72;;;0.90;;
45043;SDS011;30784;48.490;9.688;2023-08-06T07:03:31;1.77;;;0.50;;
45043;SDS011;30784;48.490;9.688;2023-08-06T07:05:57;2.03;;;0.55;;
45043;SDS011;30784;48.490;9.688;2023-08-06T07:08:24;2.90;;;0.70;;
45043;SDS011;30784;48.490;9.688;2023-08-06T07:10:49;1.50;;;0.40;;
45043;SDS011;30784;48.490;9.688;2023-08-06T07:13:15;2.00;;;0.50;;
45043;SDS011;30784;48.490;9.688;2023-08-06T07:15:41;1.38;;;0.30;;
45043;SDS011;30784;48.490;9.688;2023-08-06T07:18:07;2.83;;;0.60;;
45043;SDS011;30784;48.490;9.688;2023-08-06T07:20:32;2.15;;;0.40;;
45043;SDS011;30784;48.490;9.688;2023-08-06T07:22:59;1.85;;;0.45;;
45043;SDS011;30784;48.490;9.688;2023-08-06T07:25:25;1.80;;;0.50;;
45043;SDS011;30784;48.490;9.688;2023-08-06T07:27:51;1.50;;;0.40;;
45043;SDS011;30784;48.490;9.688;2023-08-06T07:30:16;1.63;;;0.40;;
45043;SDS011;30784;48.490;9.688;2023-08-06T07:32:42;2.58;;;0.43;;
45043;SDS011;30784;48.490;9.688;2023-08-06T07:35:07;2.38;;;0.50;;
45043;SDS011;30784;48.490;9.688;2023-08-06T07:37:37;1.30;;;0.30;;
45043;SDS011;30784;48.490;9.688;2023-08-06T07:40:03;2.97;;;0.85;;
45043;SDS011;30784;48.490;9.688;2023-08-06T07:42:29;1.50;;;0.30;;
45043;SDS011;30784;48.490;9.688;2023-08-06T07:44:55;0.93;;;0.30;;
45043;SDS011;30784;48.490;9.688;2023-08-06T07:47:23;1.98;;;0.43;;
45043;SDS011;30784;48.490;9.688;2023-08-06T07:49:48;0.77;;;0.30;;
45043;SDS011;30784;48.490;9.688;2023-08-06T07:52:14;1.05;;;0.22;;
45043;SDS011;30784;48.490;9.688;2023-08-06T07:54:40;0.30;;;0.10;;
45043;SDS011;30784;48.490;9.688;2023-08-06T07:57:06;0.52;;;0.20;;
45043;SDS011;30784;48.490;9.688;2023-08-06T07:59:31;1.42;;;0.20;;
45043;SDS011;30784;48.490;9.688;2023-08-06T08:01:57;0.57;;;0.20;;
45043;SDS011;30784;48.490;9.688;2023-08-06T08:04:23;0.35;;;0.10;;
45043;SDS011;30784;48.490;9.688;2023-08-06T08:06:49;1.33;;;0.63;;
45043;SDS011;30784;48.490;9.688;2023-08-06T08:09:14;0.80;;;0.28;;
45043;SDS011;30784;48.490;9.688;2023-08-06T08:11:40;0.52;;;0.20;;
45043;SDS011;30784;48.490;9.688;2023-08-06T08:14:06;0.73;;;0.20;;
45043;SDS011;30784;48.490;9.688;2023-08-06T08:16:32;0.38;;;0.10;;
45043;SDS011;30784;48.490;9.688;2023-08-06T08:18:58;0.80;;;0.20;;
45043;SDS011;30784;48.490;9.688;2023-08-06T08:21:24;0.70;;;0.17;;
45043;SDS011;30784;48.490;9.688;2023-08-06T08:23:49;0.43;;;0.20;;
45043;SDS011;30784;48.490;9.688;2023-08-06T08:26:15;1.27;;;0.30;;
45043;SDS011;30784;48.490;9.688;2023-08-06T08:28:41;2.63;;;0.22;;
45043;SDS011;30784;48.490;9.688;2023-08-06T08:31:10;0.65;;;0.20;;
45043;SDS011;30784;48.490;9.688;2023-08-06T08:33:39;1.05;;;0.22;;
45043;SDS011;30784;48.490;9.688;2023-08-06T08:36:05;1.23;;;0.30;;
45043;SDS011;30784;48.490;9.688;2023-08-06T08:38:30;0.55;;;0.10;;
45043;SDS011;30784;48.490;9.688;2023-08-06T08:40:56;0.32;;;0.10;;
45043;SDS011;30784;48.490;9.688;2023-08-06T08:43:21;0.85;;;0.20;;
45043;SDS011;30784;48.490;9.688;2023-08-06T08:45:49;0.70;;;0.20;;
45043;SDS011;30784;48.490;9.688;2023-08-06T08:48:16;0.63;;;0.10;;
45043;SDS011;30784;48.490;9.688;2023-08-06T08:50:44;1.15;;;0.20;;
45043;SDS011;30784;48.490;9.688;2023-08-06T08:53:13;0.63;;;0.10;;
45043;SDS011;30784;48.490;9.688;2023-08-06T08:55:40;0.20;;;0.10;;
45043;SDS011;30784;48.490;9.688;2023-08-06T08:58:07;0.47;;;0.10;;
45043;SDS011;30784;48.490;9.688;2023-08-06T09:00:33;0.15;;;0.10;;
45043;SDS011;30784;48.490;9.688;2023-08-06T09:03:00;0.95;;;0.17;;
45043;SDS011;30784;48.490;9.688;2023-08-06T09:05:28;1.17;;;0.10;;
45043;SDS011;30784;48.490;9.688;2023-08-06T09:07:55;0.80;;;0.20;;
45043;SDS011;30784;48.490;9.688;2023-08-06T09:10:29;0.30;;;0.10;;
45043;SDS011;30784;48.490;9.688;2023-08-06T09:12:56;0.77;;;0.20;;
45043;SDS011;30784;48.490;9.688;2023-08-06T09:15:24;0.20;;;0.00;;
45043;SDS011;30784;48.490;9.688;2023-08-06T09:17:51;0.20;;;0.00;;
45043;SDS011;30784;48.490;9.688;2023-08-06T09:20:17;0.25;;;0.00;;
45043;SDS011;30784;48.490;9.688;2023-08-06T09:22:43;0.75;;;0.17;;
45043;SDS011;30784;48.490;9.688;2023-08-06T09:25:10;0.47;;;0.20;;
45043;SDS011;30784;48.490;9.688;2023-08-06T09:27:36;0.65;;;0.20;;
45043;SDS011;30784;48.490;9.688;2023-08-06T09:30:03;1.08;;;0.20;;
45043;SDS011;30784;48.490;9.688;2023-08-06T09:32:44;0.85;;;0.28;;
45043;SDS011;30784;48.490;9.688;2023-08-06T09:35:17;1.38;;;0.20;;
45043;SDS011;30784;48.490;9.688;2023-08-06T09:41:05;0.15;;;0.03;;
45043;SDS011;30784;48.490;9.688;2023-08-06T09:43:31;0.68;;;0.30;;
45043;SDS011;30784;48.490;9.688;2023-08-06T09:46:10;3.97;;;1.23;;
45043;SDS011;30784;48.490;9.688;2023-08-06T09:48:41;2.75;;;0.73;;
45043;SDS011;30784;48.490;9.688;2023-08-06T09:51:10;0.73;;;0.38;;
45043;SDS011;30784;48.490;9.688;2023-08-06T09:53:38;2.17;;;0.80;;
45043;SDS011;30784;48.490;9.688;2023-08-06T09:56:05;4.28;;;1.30;;
45043;SDS011;30784;48.490;9.688;2023-08-06T09:58:31;2.60;;;0.82;;
45043;SDS011;30784;48.490;9.688;2023-08-06T10:00:57;6.00;;;2.05;;
45043;SDS011;30784;48.490;9.688;2023-08-06T10:03:25;4.63;;;1.30;;
45043;SDS011;30784;48.490;9.688;2023-08-06T10:05:51;2.13;;;0.50;;
45043;SDS011;30784;48.490;9.688;2023-08-06T10:08:16;1.55;;;0.30;;
45043;SDS011;30784;48.490;9.688;2023-08-06T10:10:42;1.83;;;0.35;;
45043;SDS011;30784;48.490;9.688;2023-08-06T10:13:09;0.45;;;0.20;;
45043;SDS011;30784;48.490;9.688;2023-08-06T10:15:35;1.02;;;0.15;;
45043;SDS011;30784;48.490;9.688;2023-08-06T10:18:03;1.02;;;0.30;;
45043;SDS011;30784;48.490;9.688;2023-08-06T10:20:34;1.17;;;0.38;;
45043;SDS011;30784;48.490;9.688;2023-08-06T10:23:03;0.75;;;0.40;;
45043;SDS011;30784;48.490;9.688;2023-08-06T10:25:30;0.80;;;0.30;;
45043;SDS011;30784;48.490;9.688;2023-08-06T10:27:57;1.50;;;0.50;;
45043;SDS011;30784;48.490;9.688;2023-08-06T10:30:32;1.17;;;0.40;;
45043;SDS011;30784;48.490;9.688;2023-08-06T10:32:59;2.05;;;0.30;;
45043;SDS011;30784;48.490;9.688;2023-08-06T10:38:13;1.20;;;0.43;;
45043;SDS011;30784;48.490;9.688;2023-08-06T10:43:33;2.28;;;0.73;;
45043;SDS011;30784;48.490;9.688;2023-08-06T10:46:10;2.33;;;0.70;;
45043;SDS011;30784;48.490;9.688;2023-08-06T10:51:02;2.85;;;0.77;;
45043;SDS011;30784;48.490;9.688;2023-08-06T10:53:28;1.38;;;0.40;;
45043;SDS011;30784;48.490;9.688;2023-08-06T10:55:54;3.15;;;1.10;;
45043;SDS011;30784;48.490;9.688;2023-08-06T10:58:19;6.78;;;2.40;;
45043;SDS011;30784;48.490;9.688;2023-08-06T11:00:45;7.20;;;2.75;;
45043;SDS011;30784;48.490;9.688;2023-08-06T11:03:11;6.95;;;2.20;;
45043;SDS011;30784;48.490;9.688;2023-08-06T11:05:37;9.57;;;3.60;;
45043;SDS011;30784;48.490;9.688;2023-08-06T11:08:03;8.95;;;3.47;;
45043;SDS011;30784;48.490;9.688;2023-08-06T11:10:29;9.43;;;3.83;;
45043;SDS011;30784;48.490;9.688;2023-08-06T11:12:54;6.45;;;2.50;;
45043;SDS011;30784;48.490;9.688;2023-08-06T11:15:20;8.15;;;2.60;;
45043;SDS011;30784;48.490;9.688;2023-08-06T11:17:46;9.70;;;2.70;;
45043;SDS011;30784;48.490;9.688;2023-08-06T11:20:12;4.25;;;1.23;;
45043;SDS011;30784;48.490;9.688;2023-08-06T11:22:38;2.95;;;0.80;;
45043;SDS011;30784;48.490;9.688;2023-08-06T11:25:04;3.30;;;0.90;;
45043;SDS011;30784;48.490;9.688;2023-08-06T11:27:31;1.63;;;0.60;;
45043;SDS011;30784;48.490;9.688;2023-08-06T11:29:57;0.93;;;0.30;;
45043;SDS011;30784;48.490;9.688;2023-08-06T11:32:22;1.02;;;0.20;;
45043;SDS011;30784;48.490;9.688;2023-08-06T11:34:48;1.38;;;0.35;;
45043;SDS011;30784;48.490;9.688;2023-08-06T11:37:13;0.93;;;0.20;;
45043;SDS011;30784;48.490;9.688;2023-08-06T11:39:39;0.30;;;0.00;;
45043;SDS011;30784;48.490;9.688;2023-08-06T11:42:11;1.38;;;0.10;;
45043;SDS011;30784;48.490;9.688;2023-08-06T11:44:37;0.63;;;0.20;;
45043;SDS011;30784;48.490;9.688;2023-08-06T11:47:05;0.45;;;0.20;;
45043;SDS011;30784;48.490;9.688;2023-08-06T11:49:39;0.22;;;0.08;;
45043;SDS011;30784;48.490;9.688;2023-08-06T11:52:10;0.88;;;0.20;;
45043;SDS011;30784;48.490;9.688;2023-08-06T11:54:38;1.45;;;0.20;;
45043;SDS011;30784;48.490;9.688;2023-08-06T11:57:06;1.30;;;0.30;;
45043;SDS011;30784;48.490;9.688;2023-08-06T11:59:32;11.07;;;7.32;;
45043;SDS011;30784;48.490;9.688;2023-08-06T12:02:02;2.97;;;1.13;;
45043;SDS011;30784;48.490;9.688;2023-08-06T12:04:30;3.13;;;0.95;;
45043;SDS011;30784;48.490;9.688;2023-08-06T12:07:04;3.03;;;0.80;;
45043;SDS011;30784;48.490;9.688;2023-08-06T12:09:32;1.00;;;0.30;;
45043;SDS011;30784;48.490;9.688;2023-08-06T12:11:58;1.92;;;0.60;;
45043;SDS011;30784;48.490;9.688;2023-08-06T12:14:24;1.15;;;0.38;;
45043;SDS011;30784;48.490;9.688;2023-08-06T12:16:49;1.08;;;0.20;;
45043;SDS011;30784;48.490;9.688;2023-08-06T12:19:15;0.55;;;0.13;;
45043;SDS011;30784;48.490;9.688;2023-08-06T12:21:40;0.82;;;0.20;;
45043;SDS011;30784;48.490;9.688;2023-08-06T12:24:06;0.60;;;0.20;;
45043;SDS011;30784;48.490;9.688;2023-08-06T12:26:32;0.90;;;0.30;;
45043;SDS011;30784;48.490;9.688;2023-08-06T12:28:58;1.05;;;0.25;;
45043;SDS011;30784;48.490;9.688;2023-08-06T12:31:23;0.32;;;0.20;;
45043;SDS011;30784;48.490;9.688;2023-08-06T12:33:49;1.73;;;0.30;;
45043;SDS011;30784;48.490;9.688;2023-08-06T12:36:14;0.52;;;0.22;;
45043;SDS011;30784;48.490;9.688;2023-08-06T12:38:40;1.13;;;0.30;;
45043;SDS011;30784;48.490;9.688;2023-08-06T12:41:05;1.55;;;0.25;;
45043;SDS011;30784;48.490;9.688;2023-08-06T12:43:31;1.00;;;0.40;;
45043;SDS011;30784;48.490;9.688;2023-08-06T12:45:56;1.73;;;0.40;;
45043;SDS011;30784;48.490;9.688;2023-08-06T12:48:22;2.00;;;0.30;;
45043;SDS011;30784;48.490;9.688;2023-08-06T12:50:47;2.22;;;0.50;;
45043;SDS011;30784;48.490;9.688;2023-08-06T12:53:14;1.08;;;0.40;;
45043;SDS011;30784;48.490;9.688;2023-08-06T12:55:40;1.05;;;0.30;;
45043;SDS011;30784;48.490;9.688;2023-08-06T12:58:06;0.73;;;0.32;;
45043;SDS011;30784;48.490;9.688;2023-08-06T13:00:31;2.33;;;0.57;;
45043;SDS011;30784;48.490;9.688;2023-08-06T13:02:57;2.85;;;0.70;;
45043;SDS011;30784;48.490;9.688;2023-08-06T13:05:22;2.90;;;0.90;;
45043;SDS011;30784;48.490;9.688;2023-08-06T13:07:48;2.55;;;0.80;;
45043;SDS011;30784;48.490;9.688;2023-08-06T13:10:14;1.23;;;0.40;;
45043;SDS011;30784;48.490;9.688;2023-08-06T13:12:39;2.65;;;0.47;;
45043;SDS011;30784;48.490;9.688;2023-08-06T13:15:05;0.70;;;0.38;;
45043;SDS011;30784;48.490;9.688;2023-08-06T13:17:31;0.73;;;0.43;;
45043;SDS011;30784;48.490;9.688;2023-08-06T13:19:56;1.58;;;0.50;;
45043;SDS011;30784;48.490;9.688;2023-08-06T13:22:22;2.65;;;0.77;;
45043;SDS011;30784;48.490;9.688;2023-08-06T13:24:48;2.15;;;0.80;;
45043;SDS011;30784;48.490;9.688;2023-08-06T13:27:13;1.83;;;0.55;;
45043;SDS011;30784;48.490;9.688;2023-08-06T13:29:39;1.73;;;0.50;;
45043;SDS011;30784;48.490;9.688;2023-08-06T13:32:04;1.40;;;0.60;;
45043;SDS011;30784;48.490;9.688;2023-08-06T13:34:30;1.65;;;0.68;;
45043;SDS011;30784;48.490;9.688;2023-08-06T13:36:56;1.92;;;0.60;;
45043;SDS011;30784;48.490;9.688;2023-08-06T13:39:21;1.52;;;0.57;;
45043;SDS011;30784;48.490;9.688;2023-08-06T13:41:47;2.17;;;0.50;;
45043;SDS011;30784;48.490;9.688;2023-08-06T13:44:12;1.90;;;0.63;;
45043;SDS011;30784;48.490;9.688;2023-08-06T13:46:39;1.67;;;0.45;;
45043;SDS011;30784;48.490;9.688;2023-08-06T13:49:06;1.45;;;0.50;;
45043;SDS011;30784;48.490;9.688;2023-08-06T13:51:31;1.75;;;0.73;;
45043;SDS011;30784;48.490;9.688;2023-08-06T13:53:58;1.77;;;0.50;;
45043;SDS011;30784;48.490;9.688;2023-08-06T13:56:24;1.10;;;0.32;;
45043;SDS011;30784;48.490;9.688;2023-08-06T13:58:50;2.55;;;0.60;;
45043;SDS011;30784;48.490;9.688;2023-08-06T14:01:16;1.70;;;0.50;;
45043;SDS011;30784;48.490;9.688;2023-08-06T14:03:43;1.33;;;0.35;;
45043;SDS011;30784;48.490;9.688;2023-08-06T14:06:09;1.13;;;0.50;;
45043;SDS011;30784;48.490;9.688;2023-08-06T14:08:35;1.20;;;0.40;;
45043;SDS011;30784;48.490;9.688;2023-08-06T14:11:00;1.73;;;0.60;;
45043;SDS011;30784;48.490;9.688;2023-08-06T14:13:26;1.13;;;0.40;;
45043;SDS011;30784;48.490;9.688;2023-08-06T14:15:51;2.42;;;0.60;;
45043;SDS011;30784;48.490;9.688;2023-08-06T14:18:17;1.67;;;0.47;;
45043;SDS011;30784;48.490;9.688;2023-08-06T14:20:43;0.88;;;0.40;;
45043;SDS011;30784;48.490;9.688;2023-08-06T14:23:09;1.35;;;0.50;;
45043;SDS011;30784;48.490;9.688;2023-08-06T14:25:34;2.80;;;0.70;;
45043;SDS011;30784;48.490;9.688;2023-08-06T14:28:00;1.48;;;0.50;;
45043;SDS011;30784;48.490;9.688;2023-08-06T14:30:26;1.52;;;0.40;;
45043;SDS011;30784;48.490;9.688;2023-08-06T14:32:51;1.98;;;0.50;;
45043;SDS011;30784;48.490;9.688;2023-08-06T14:35:17;1.83;;;0.50;;
45043;SDS011;30784;48.490;9.688;2023-08-06T14:37:42;0.98;;;0.38;;
45043;SDS011;30784;48.490;9.688;2023-08-06T14:40:09;0.85;;;0.25;;
45043;SDS011;30784;48.490;9.688;2023-08-06T14:42:35;1.10;;;0.40;;
45043;SDS011;30784;48.490;9.688;2023-08-06T14:45:01;1.13;;;0.25;;
45043;SDS011;30784;48.490;9.688;2023-08-06T14:47:27;1.58;;;0.40;;
45043;SDS011;30784;48.490;9.688;2023-08-06T14:49:52;1.42;;;0.47;;
45043;SDS011;30784;48.490;9.688;2023-08-06T14:52:18;0.95;;;0.40;;
45043;SDS011;30784;48.490;9.688;2023-08-06T14:54:43;2.75;;;0.52;;
45043;SDS011;30784;48.490;9.688;2023-08-06T14:57:09;2.80;;;0.60;;
45043;SDS011;30784;48.490;9.688;2023-08-06T14:59:35;0.90;;;0.35;;
45043;SDS011;30784;48.490;9.688;2023-08-06T15:02:01;1.20;;;0.40;;